createdAt,value
2019-06-07T00:01:31.251Z,11.70
2019-06-07T00:03:35.103Z,11.70
2019-06-07T00:05:39.116Z,11.60
2019-06-07T00:07:43.070Z,11.60
2019-06-07T00:09:47.053Z,11.60
2019-06-07T00:11:50.883Z,11.60
2019-06-07T00:13:54.823Z,11.50
2019-06-07T00:15:58.708Z,11.50
2019-06-07T00:18:02.569Z,11.50
2019-06-07T00:20:09.390Z,11.50
2019-06-07T00:22:20.437Z,11.50
2019-06-07T00:24:21.547Z,11.40
2019-06-07T00:26:24.691Z,11.40
2019-06-07T00:28:28.580Z,11.40
2019-06-07T00:30:48.701Z,11.40
2019-06-07T00:34:41.691Z,11.40
2019-06-07T00:36:45.927Z,11.40
2019-06-07T00:38:49.881Z,11.30
2019-06-07T00:40:53.692Z,11.30
2019-06-07T00:42:57.622Z,11.20
2019-06-07T00:47:05.137Z,11.20
2019-06-07T00:49:09.016Z,11.10
2019-06-07T00:51:14.025Z,11.10
2019-06-07T00:53:29.098Z,11.10
2019-06-07T00:55:27.541Z,11.10
2019-06-07T00:57:31.296Z,11.00
2019-06-07T00:59:35.472Z,11.00
2019-06-07T01:01:39.473Z,11.00
2019-06-07T01:03:43.578Z,11.00
2019-06-07T01:05:47.549Z,10.90
2019-06-07T01:08:29.638Z,10.90
2019-06-07T01:10:59.082Z,10.90
2019-06-07T01:12:55.698Z,10.80
2019-06-07T01:15:11.403Z,10.80
2019-06-07T01:18:32.396Z,10.80
2019-06-07T01:19:48.338Z,10.80
2019-06-07T01:22:10.762Z,10.80
2019-06-07T01:24:33.612Z,10.80
2019-06-07T01:27:03.172Z,10.80
2019-06-07T01:29:22.281Z,10.70
2019-06-07T01:31:42.470Z,10.70
2019-06-07T01:33:56.097Z,10.70
2019-06-07T01:36:18.236Z,10.60
2019-06-07T01:38:39.441Z,10.60
2019-06-07T01:41:03.010Z,10.60
2019-06-07T01:43:30.559Z,10.50
2019-06-07T01:45:44.708Z,10.50
2019-06-07T01:48:03.110Z,10.50
2019-06-07T01:50:36.274Z,10.50
2019-06-07T01:53:21.931Z,10.40
2019-06-07T01:55:49.300Z,10.40
2019-06-07T01:58:11.329Z,10.40
2019-06-07T02:00:38.314Z,10.40
2019-06-07T02:02:56.392Z,10.30
2019-06-07T02:05:21.509Z,10.30
2019-06-07T02:07:33.239Z,10.30
2019-06-07T02:09:50.651Z,10.30
2019-06-07T02:12:25.723Z,10.30
2019-06-07T02:14:46.911Z,10.30
2019-06-07T02:17:02.653Z,10.30
2019-06-07T02:19:19.470Z,10.20
2019-06-07T02:21:23.117Z,10.20
2019-06-07T02:23:33.735Z,10.20
2019-06-07T02:25:46.535Z,10.10
2019-06-07T02:28:26.601Z,10.10
2019-06-07T02:30:44.673Z,10.10
2019-06-07T02:35:33.614Z,10.10
2019-06-07T02:37:50.433Z,10.00
2019-06-07T02:40:19.552Z,10.00
2019-06-07T02:42:46.046Z,10.00
2019-06-07T02:45:24.152Z,10.00
2019-06-07T02:47:42.126Z,10.00
2019-06-07T02:50:14.372Z,10.00
2019-06-07T02:52:40.687Z,10.00
2019-06-07T02:55:16.761Z,10.00
2019-06-07T02:57:46.605Z,10.00
2019-06-07T03:00:40.451Z,9.90
2019-06-07T03:02:41.246Z,9.90
2019-06-07T03:05:13.271Z,9.90
2019-06-07T03:07:39.014Z,10.00
2019-06-07T03:09:48.120Z,10.00
2019-06-07T03:12:12.012Z,10.00
2019-06-07T03:14:39.496Z,10.00
2019-06-07T03:17:03.154Z,10.00
2019-06-07T03:19:37.575Z,10.00
2019-06-07T03:22:19.225Z,10.00
2019-06-07T03:24:18.393Z,10.00
2019-06-07T03:27:31.691Z,10.00
2019-06-07T03:29:07.131Z,10.10
2019-06-07T03:31:28.530Z,10.10
2019-06-07T03:33:59.188Z,10.10
2019-06-07T03:36:40.376Z,10.10
2019-06-07T03:39:04.566Z,10.20
2019-06-07T03:41:29.279Z,10.30
2019-06-07T03:43:59.045Z,10.30
2019-06-07T03:46:22.713Z,10.40
2019-06-07T03:48:41.029Z,10.40
2019-06-07T03:51:04.613Z,10.50
2019-06-07T03:53:07.972Z,10.50
2019-06-07T03:55:41.267Z,10.60
2019-06-07T03:58:30.774Z,10.70
2019-06-07T04:00:34.889Z,10.70
2019-06-07T04:02:59.516Z,10.80
2019-06-07T04:05:10.815Z,10.90
2019-06-07T04:07:28.975Z,11.00
2019-06-07T04:10:00.132Z,11.10
2019-06-07T04:12:35.546Z,11.30
2019-06-07T04:14:58.988Z,11.50
2019-06-07T04:17:18.075Z,11.60
2019-06-07T04:19:43.505Z,11.80
2019-06-07T04:22:03.486Z,12.00
2019-06-07T04:24:28.844Z,12.20
2019-06-07T04:27:06.930Z,12.30
2019-06-07T04:30:02.002Z,12.50
2019-06-07T04:32:14.561Z,12.70
2019-06-07T04:34:43.252Z,12.80
2019-06-07T04:36:59.199Z,13.00
2019-06-07T04:39:33.587Z,13.10
2019-06-07T04:42:02.959Z,13.20
2019-06-07T04:44:18.422Z,13.30
2019-06-07T04:46:43.001Z,13.30
2019-06-07T04:49:05.135Z,13.40
2019-06-07T04:51:30.143Z,13.40
2019-06-07T04:53:47.968Z,13.50
2019-06-07T04:56:21.679Z,13.50
2019-06-07T05:02:59.820Z,15.10
2019-06-07T05:05:08.654Z,15.90
2019-06-07T05:07:26.973Z,16.70
2019-06-07T05:09:51.583Z,17.40
2019-06-07T05:12:03.649Z,18.10
2019-06-07T05:14:23.817Z,18.70
2019-06-07T05:16:58.659Z,19.20
2019-06-07T05:19:30.584Z,19.80
2019-06-07T05:22:05.537Z,20.60
2019-06-07T05:24:53.833Z,20.70
2019-06-07T05:27:15.240Z,21.20
2019-06-07T05:29:39.214Z,21.60
2019-06-07T05:32:09.818Z,21.90
2019-06-07T05:34:41.895Z,22.10
2019-06-07T05:37:11.029Z,22.40
2019-06-07T05:39:26.112Z,22.80
2019-06-07T05:41:41.188Z,22.80
2019-06-07T05:44:11.693Z,22.90
2019-06-07T05:46:15.573Z,22.90
2019-06-07T05:48:40.504Z,23.10
2019-06-07T05:50:57.772Z,23.30
2019-06-07T05:53:27.443Z,23.70
2019-06-07T05:55:48.542Z,23.90
2019-06-07T05:58:19.937Z,23.80
2019-06-07T06:00:47.186Z,23.50
2019-06-07T06:03:06.089Z,23.50
2019-06-07T06:05:33.153Z,23.30
2019-06-07T06:07:50.909Z,23.60
2019-06-07T06:10:08.322Z,23.30
2019-06-07T06:12:40.592Z,22.90
2019-06-07T06:15:15.585Z,22.60
2019-06-07T06:17:30.706Z,22.80
2019-06-07T06:19:50.350Z,23.10
2019-06-07T06:22:06.459Z,23.50
2019-06-07T06:24:43.074Z,23.70
2019-06-07T06:27:15.278Z,23.90
2019-06-07T06:29:25.394Z,23.70
2019-06-07T06:32:39.434Z,23.80
2019-06-07T06:34:06.876Z,24.10
2019-06-07T06:36:25.579Z,24.30
2019-06-07T06:38:41.418Z,24.40
2019-06-07T06:41:14.291Z,24.60
2019-06-07T06:43:28.209Z,24.60
2019-06-07T06:45:43.521Z,24.50
2019-06-07T06:50:52.380Z,24.30
2019-06-07T06:55:43.794Z,23.70
2019-06-07T06:58:01.129Z,23.20
2019-06-07T07:00:43.230Z,22.60
2019-06-07T07:03:36.107Z,22.10
2019-06-07T07:04:57.948Z,21.70
2019-06-07T07:07:02.302Z,21.40
2019-06-07T07:09:06.836Z,21.30
2019-06-07T07:11:10.710Z,21.20
2019-06-07T07:13:16.768Z,21.20
2019-06-07T07:15:24.408Z,21.20
2019-06-07T07:17:47.662Z,21.30
2019-06-07T07:19:34.423Z,21.20
2019-06-07T07:21:45.861Z,21.20
2019-06-07T07:24:19.702Z,21.20
2019-06-07T07:26:17.019Z,21.30
2019-06-07T07:28:27.315Z,21.20
2019-06-07T07:31:11.114Z,21.10
2019-06-07T07:33:15.862Z,21.10
2019-06-07T07:35:30.669Z,21.20
2019-06-07T07:37:35.349Z,21.30
2019-06-07T07:39:45.245Z,21.50
2019-06-07T07:42:16.751Z,21.70
2019-06-07T07:44:06.518Z,21.80
2019-06-07T07:46:28.624Z,21.80
2019-06-07T07:48:20.761Z,21.70
2019-06-07T07:50:27.838Z,21.50
2019-06-07T07:52:31.785Z,21.40
2019-06-07T07:54:38.509Z,21.40
2019-06-07T07:56:42.332Z,21.40
2019-06-07T07:58:50.083Z,21.40
2019-06-07T08:01:00.358Z,21.30
2019-06-07T08:03:04.432Z,21.40
2019-06-07T08:05:23.498Z,21.50
2019-06-07T08:07:14.136Z,21.60
2019-06-07T08:09:18.188Z,21.60
2019-06-07T08:11:22.285Z,21.60
2019-06-07T08:13:27.658Z,21.70
2019-06-07T08:15:32.272Z,21.80
2019-06-07T08:17:36.354Z,21.80
2019-06-07T08:19:40.255Z,21.80
2019-06-07T08:21:44.138Z,21.90
2019-06-07T08:23:51.641Z,22.10
2019-06-07T08:26:00.056Z,22.30
2019-06-07T08:28:00.474Z,22.50
2019-06-07T08:30:35.429Z,22.60
2019-06-07T08:32:10.223Z,22.60
2019-06-07T08:34:14.071Z,22.50
2019-06-07T08:36:37.557Z,22.50
2019-06-07T08:38:38.915Z,22.50
2019-06-07T08:40:31.526Z,22.60
2019-06-07T08:42:59.435Z,22.60
2019-06-07T08:44:44.322Z,22.70
2019-06-07T08:46:48.185Z,22.50
2019-06-07T08:48:53.969Z,22.50
2019-06-07T08:51:04.398Z,22.50
2019-06-07T08:53:11.917Z,22.40
2019-06-07T08:55:09.881Z,22.40
2019-06-07T08:57:21.337Z,22.50
2019-06-07T08:59:19.468Z,22.50
2019-06-07T09:01:23.412Z,22.50
2019-06-07T09:03:27.321Z,22.40
2019-06-07T09:05:31.291Z,22.40
2019-06-07T09:07:35.475Z,22.20
2019-06-07T09:09:39.318Z,22.20
2019-06-07T09:11:43.183Z,22.10
2019-06-07T09:13:47.172Z,22.10
2019-06-07T09:15:51.063Z,22.10
2019-06-07T09:18:37.981Z,22.00
2019-06-07T09:20:07.323Z,22.00
2019-06-07T09:22:10.818Z,22.10
2019-06-07T09:24:12.340Z,22.20
2019-06-07T09:26:18.748Z,22.20
2019-06-07T09:28:22.425Z,22.10
2019-06-07T09:30:42.969Z,22.00
2019-06-07T09:32:46.961Z,22.00
2019-06-07T09:34:50.876Z,22.00
2019-06-07T09:37:01.777Z,21.90
2019-06-07T09:39:06.474Z,21.90
2019-06-07T09:41:11.677Z,22.00
2019-06-07T09:43:59.839Z,22.10
2019-06-07T09:45:18.364Z,22.20
2019-06-07T09:47:32.162Z,22.30
2019-06-07T09:49:32.627Z,22.30
2019-06-07T09:51:33.677Z,22.40
2019-06-07T09:53:37.675Z,22.30
2019-06-07T09:55:42.060Z,22.30
2019-06-07T09:57:48.629Z,22.30
2019-06-07T09:59:52.740Z,22.30
2019-06-07T10:01:59.544Z,22.30
2019-06-07T10:04:09.171Z,22.40
2019-06-07T10:06:13.721Z,22.50
2019-06-07T10:09:01.004Z,22.60
2019-06-07T10:12:27.375Z,22.90
2019-06-07T10:14:31.207Z,23.10
2019-06-07T10:16:46.248Z,23.20
2019-06-07T10:18:41.213Z,23.10
2019-06-07T10:20:45.075Z,23.10
2019-06-07T10:22:49.371Z,22.90
2019-06-07T10:24:53.274Z,22.90
2019-06-07T10:26:57.402Z,22.80
2019-06-07T10:29:01.888Z,22.80
2019-06-07T10:31:12.078Z,22.80
2019-06-07T10:33:18.178Z,22.80
2019-06-07T10:35:21.776Z,22.80
2019-06-07T10:37:25.626Z,22.70
2019-06-07T10:39:47.588Z,22.80
2019-06-07T10:41:39.596Z,22.90
2019-06-07T10:43:43.788Z,22.90
2019-06-07T10:45:51.150Z,23.00
2019-06-07T10:47:56.990Z,23.10
2019-06-07T10:50:01.858Z,23.20
2019-06-07T10:52:07.902Z,23.20
2019-06-07T10:54:24.797Z,23.20
2019-06-07T10:56:17.602Z,23.30
2019-06-07T10:58:22.410Z,23.40
2019-06-07T11:00:26.981Z,23.50
2019-06-07T11:02:31.105Z,23.40
2019-06-07T11:04:35.133Z,23.30
2019-06-07T11:06:39.179Z,23.20
2019-06-07T11:08:47.765Z,23.20
2019-06-07T11:10:48.921Z,23.40
2019-06-07T11:12:52.825Z,23.60
2019-06-07T11:15:04.459Z,23.70
2019-06-07T11:17:04.949Z,23.70
2019-06-07T11:19:12.645Z,23.50
2019-06-07T11:21:14.689Z,23.50
2019-06-07T11:23:18.629Z,23.50
2019-06-07T11:25:37.887Z,23.40
2019-06-07T11:27:41.830Z,23.40
2019-06-07T11:29:45.871Z,23.40
2019-06-07T11:31:50.119Z,23.40
2019-06-07T11:33:59.373Z,23.30
2019-06-07T11:36:06.721Z,23.40
2019-06-07T11:38:10.902Z,23.50
2019-06-07T11:40:30.771Z,23.50
2019-06-07T11:42:22.062Z,23.40
2019-06-07T11:44:26.050Z,23.40
2019-06-07T11:46:39.039Z,23.40
2019-06-07T11:48:59.942Z,23.40
2019-06-07T11:51:04.153Z,23.40
2019-06-07T11:53:19.980Z,23.40
2019-06-07T11:55:38.750Z,23.50
2019-06-07T11:57:46.638Z,23.60
2019-06-07T11:59:50.898Z,23.70
2019-06-07T12:01:55.043Z,23.70
2019-06-07T12:04:07.435Z,23.70
2019-06-07T12:06:16.286Z,23.70
2019-06-07T12:08:20.449Z,23.70
2019-06-07T12:10:34.309Z,23.80
2019-06-07T12:12:35.432Z,23.80
2019-06-07T12:14:39.511Z,23.90
2019-06-07T12:16:43.361Z,24.00
2019-06-07T12:18:51.420Z,24.00
2019-06-07T12:20:55.689Z,24.00
2019-06-07T12:22:59.534Z,23.80
2019-06-07T12:25:05.957Z,23.60
2019-06-07T12:27:10.312Z,23.50
2019-06-07T12:29:14.904Z,23.60
2019-06-07T12:31:19.270Z,23.90
2019-06-07T12:33:23.570Z,24.10
2019-06-07T12:35:30.321Z,24.60
2019-06-07T12:37:43.901Z,25.00
2019-06-07T12:39:39.958Z,25.20
2019-06-07T12:41:45.321Z,25.20
2019-06-07T12:43:53.392Z,25.40
2019-06-07T12:45:57.543Z,25.50
2019-06-07T12:48:01.438Z,25.70
2019-06-07T12:50:06.731Z,25.80
2019-06-07T12:52:13.993Z,25.90
2019-06-07T12:54:18.094Z,25.80
2019-06-07T12:56:22.021Z,25.80
2019-06-07T12:58:34.723Z,25.70
2019-06-07T13:00:32.626Z,25.60
2019-06-07T13:02:39.384Z,25.50
2019-06-07T13:04:43.566Z,25.50
2019-06-07T13:06:47.491Z,25.40
2019-06-07T13:08:51.734Z,25.40
2019-06-07T13:10:55.708Z,25.40
2019-06-07T13:13:21.078Z,25.40
2019-06-07T13:15:38.022Z,25.30
2019-06-07T13:17:46.470Z,25.30
2019-06-07T13:19:54.521Z,25.30
2019-06-07T13:22:02.475Z,25.40
2019-06-07T13:24:43.909Z,25.50
2019-06-07T13:26:50.059Z,25.50
2019-06-07T13:29:02.522Z,25.60
2019-06-07T13:31:30.602Z,25.60
2019-06-07T13:33:43.747Z,25.60
2019-06-07T13:35:49.657Z,25.60
2019-06-07T13:37:53.746Z,25.60
2019-06-07T13:39:57.943Z,25.60
2019-06-07T13:42:01.952Z,25.70
2019-06-07T13:44:06.055Z,25.80
2019-06-07T13:46:45.532Z,25.90
2019-06-07T13:48:36.893Z,26.00
2019-06-07T13:51:12.122Z,26.00
2019-06-07T13:53:31.329Z,26.00
2019-06-07T13:56:10.631Z,26.00
2019-06-07T13:58:32.245Z,26.00
2019-06-07T14:07:28.018Z,26.20
2019-06-07T14:09:55.667Z,26.30
2019-06-07T14:12:24.079Z,26.30
2019-06-07T14:14:45.126Z,26.40
2019-06-07T14:17:13.099Z,26.50
2019-06-07T14:19:42.949Z,26.60
2019-06-07T14:21:53.310Z,26.70
2019-06-07T14:24:11.660Z,26.70
2019-06-07T14:26:34.504Z,26.70
2019-06-07T14:28:53.802Z,26.70
2019-06-07T14:31:32.424Z,26.60
2019-06-07T14:34:04.691Z,26.60
2019-06-07T14:36:44.637Z,26.50
2019-06-07T14:39:11.966Z,26.50
2019-06-07T14:41:33.739Z,26.50
2019-06-07T14:43:45.078Z,26.50
2019-06-07T14:46:08.634Z,26.60
2019-06-07T15:04:02.704Z,27.30
2019-06-07T15:06:48.387Z,27.30
2019-06-07T15:11:39.423Z,27.90
2019-06-07T15:13:58.539Z,28.20
2019-06-07T15:16:21.725Z,28.30
2019-06-07T15:18:25.710Z,28.30
2019-06-07T15:20:38.515Z,28.40
2019-06-07T15:22:38.899Z,28.50
2019-06-07T15:24:43.099Z,28.40
2019-06-07T15:26:55.546Z,28.20
2019-06-07T15:29:02.588Z,28.10
2019-06-07T15:31:13.106Z,28.00
2019-06-07T15:33:17.311Z,27.90
2019-06-07T15:35:40.773Z,27.70
2019-06-07T15:37:48.001Z,27.70
2019-06-07T15:39:54.796Z,27.60
2019-06-07T15:41:57.975Z,27.40
2019-06-07T15:44:01.790Z,27.20
2019-06-07T15:46:29.427Z,27.10
2019-06-07T15:48:34.001Z,27.10
2019-06-07T15:50:49.970Z,27.00
2019-06-07T15:54:54.487Z,26.90
2019-06-07T15:55:52.646Z,26.90
2019-06-07T15:57:59.737Z,26.90
2019-06-07T16:00:04.649Z,27.00
2019-06-07T16:02:16.384Z,27.10
2019-06-07T16:04:38.022Z,27.10
2019-06-07T16:06:47.218Z,27.10
2019-06-07T16:08:51.940Z,27.20
2019-06-07T16:10:55.877Z,27.20
2019-06-07T16:13:00.976Z,27.10
2019-06-07T16:15:06.449Z,27.00
2019-06-07T16:17:10.696Z,26.90
2019-06-07T16:19:14.743Z,26.90
2019-06-07T16:21:18.976Z,26.90
2019-06-07T16:23:29.216Z,26.80
2019-06-07T16:25:35.956Z,26.80
2019-06-07T16:27:57.566Z,26.90
2019-06-07T16:29:58.605Z,26.90
2019-06-07T16:32:11.766Z,27.00
2019-06-07T16:34:13.429Z,27.00
2019-06-07T16:36:23.127Z,27.00
2019-06-07T16:38:38.394Z,26.80
2019-06-07T16:41:17.092Z,26.60
2019-06-07T16:43:26.565Z,26.30
2019-06-07T16:45:36.471Z,26.10
2019-06-07T16:47:49.785Z,25.90
2019-06-07T16:50:07.864Z,25.70
2019-06-07T16:52:16.803Z,25.60
2019-06-07T16:54:41.585Z,25.40
2019-06-07T16:56:53.358Z,25.30
2019-06-07T16:59:00.993Z,25.10
2019-06-07T17:01:04.967Z,25.00
2019-06-07T17:03:16.271Z,24.70
2019-06-07T17:05:26.045Z,24.30
2019-06-07T17:07:44.586Z,23.40
2019-06-07T17:09:59.075Z,22.90
2019-06-07T17:12:03.323Z,22.40
2019-06-07T17:14:10.262Z,22.00
2019-06-07T17:16:14.366Z,21.70
2019-06-07T17:18:30.200Z,21.50
2019-06-07T17:20:38.923Z,21.40
2019-06-07T17:22:49.732Z,21.20
2019-06-07T17:25:00.635Z,21.10
2019-06-07T17:27:04.829Z,20.90
2019-06-07T17:29:10.727Z,20.80
2019-06-07T17:31:28.019Z,21.20
2019-06-07T17:33:29.338Z,21.50
2019-06-07T17:35:38.337Z,21.80
2019-06-07T17:37:47.227Z,22.10
2019-06-07T17:40:03.189Z,22.20
2019-06-07T17:42:07.543Z,22.10
2019-06-07T17:44:14.763Z,22.20
2019-06-07T17:46:23.140Z,23.20
2019-06-07T17:48:27.049Z,24.50
2019-06-07T17:50:33.074Z,25.60
2019-06-07T17:52:45.979Z,27.00
2019-06-07T17:54:50.113Z,27.50
2019-06-07T17:56:53.941Z,27.90
2019-06-07T17:59:00.401Z,27.80
2019-06-07T18:01:04.367Z,27.90
2019-06-07T18:03:08.271Z,28.00
2019-06-07T18:05:13.242Z,27.80
2019-06-07T18:07:18.520Z,27.80
2019-06-07T18:09:24.612Z,27.50
2019-06-07T18:11:28.473Z,26.90
2019-06-07T18:13:32.261Z,26.90
2019-06-07T18:15:44.348Z,27.50
2019-06-07T18:17:58.331Z,27.60
2019-06-07T18:20:11.725Z,27.20
2019-06-07T18:22:15.710Z,27.30
2019-06-07T18:24:26.134Z,27.40
2019-06-07T18:26:35.782Z,26.60
2019-06-07T18:28:46.567Z,26.00
2019-06-07T18:33:04.163Z,23.70
2019-06-07T18:35:08.285Z,22.40
2019-06-07T18:39:16.212Z,20.90
2019-06-07T18:41:24.066Z,20.60
2019-06-07T18:43:38.221Z,20.30
2019-06-07T18:45:43.508Z,19.90
2019-06-07T18:47:47.871Z,19.70
2019-06-07T18:49:53.351Z,19.50
2019-06-07T18:52:22.415Z,19.30
2019-06-07T18:54:26.283Z,19.10
2019-06-07T18:56:31.567Z,18.90
2019-06-07T18:58:37.614Z,18.70
2019-06-07T19:00:53.688Z,18.70
2019-06-07T19:03:10.835Z,18.60
2019-06-07T19:05:23.705Z,18.50
2019-06-07T19:07:54.650Z,18.40
2019-06-07T19:10:14.066Z,18.30
2019-06-07T19:12:40.449Z,18.20
2019-06-07T19:14:43.376Z,18.10
2019-06-07T19:16:53.698Z,18.10
2019-06-07T19:19:00.153Z,18.00
2019-06-07T19:21:09.966Z,18.00
2019-06-07T19:23:24.343Z,17.90
2019-06-07T19:25:28.602Z,17.90
2019-06-07T19:27:35.566Z,17.90
2019-06-07T19:29:52.436Z,17.90
2019-06-07T19:32:01.308Z,18.00
2019-06-07T19:34:21.162Z,18.00
2019-06-07T19:36:57.872Z,18.00
2019-06-07T19:39:08.504Z,18.00
2019-06-07T19:41:28.916Z,17.90
2019-06-07T19:43:44.402Z,17.80
2019-06-07T19:45:56.621Z,17.80
2019-06-07T19:48:00.844Z,17.70
2019-06-07T19:50:21.207Z,17.60
2019-06-07T19:52:29.128Z,17.60
2019-06-07T19:54:33.280Z,17.50
2019-06-07T19:56:42.377Z,17.50
2019-06-07T19:58:55.532Z,17.50
2019-06-07T20:00:59.711Z,17.50
2019-06-07T20:03:06.845Z,17.50
2019-06-07T20:05:21.549Z,17.40
2019-06-07T20:07:25.356Z,17.40
2019-06-07T20:09:36.486Z,17.20
2019-06-07T20:11:42.587Z,17.20
2019-06-07T20:13:54.491Z,17.10
2019-06-07T20:16:03.536Z,17.00
2019-06-07T20:18:10.564Z,16.90
2019-06-07T20:20:24.778Z,16.80
2019-06-07T20:22:33.673Z,16.80
2019-06-07T20:24:42.301Z,16.70
2019-06-07T20:26:46.247Z,16.60
2019-06-07T20:28:52.352Z,16.50
2019-06-07T20:31:03.777Z,16.40
2019-06-07T20:33:13.347Z,16.40
2019-06-07T20:35:20.514Z,16.30
2019-06-07T20:37:32.525Z,16.30
2019-06-07T20:39:36.636Z,16.20
2019-06-07T20:41:40.921Z,16.20
2019-06-07T20:43:44.795Z,16.10
2019-06-07T20:45:48.650Z,16.10
2019-06-07T20:47:52.893Z,16.10
2019-06-07T20:50:00.090Z,16.20
2019-06-07T20:52:06.802Z,16.20
2019-06-07T20:54:19.857Z,16.30
2019-06-07T20:56:24.711Z,16.30
2019-06-07T20:58:34.802Z,16.40
2019-06-07T21:00:45.576Z,16.50
2019-06-07T21:02:55.608Z,16.60
2019-06-07T21:04:59.573Z,16.70
2019-06-07T21:07:03.622Z,16.80
2019-06-07T21:09:07.866Z,16.80
2019-06-07T21:11:11.737Z,16.90
2019-06-07T21:13:19.241Z,17.00
2019-06-07T21:15:27.898Z,17.00
2019-06-07T21:17:48.072Z,17.00
2019-06-07T21:26:17.650Z,17.10
2019-06-07T21:28:47.174Z,17.00
2019-06-07T21:31:14.492Z,17.00
2019-06-07T21:33:50.267Z,16.90
2019-06-07T21:36:22.194Z,16.80
2019-06-07T21:38:42.010Z,16.70
2019-06-07T21:41:15.378Z,16.50
2019-06-07T21:44:02.411Z,16.40
2019-06-07T21:46:32.698Z,16.30
2019-06-07T21:48:52.372Z,16.20
2019-06-07T21:51:15.715Z,16.10
2019-06-07T21:53:35.473Z,16.00
2019-06-07T21:56:19.243Z,16.00
2019-06-07T21:59:01.401Z,16.00
2019-06-07T22:01:50.710Z,15.90
2019-06-07T22:04:11.726Z,16.00
2019-06-07T22:06:25.173Z,16.00
2019-06-07T22:08:45.338Z,16.00
2019-06-07T22:11:03.893Z,16.00
2019-06-07T22:13:45.272Z,16.00
2019-06-07T22:16:01.074Z,16.00
2019-06-07T22:18:14.627Z,16.00
2019-06-07T22:20:32.915Z,16.00
2019-06-07T22:22:55.244Z,15.90
2019-06-07T22:25:18.914Z,15.90
2019-06-07T22:27:34.639Z,15.80
2019-06-07T22:29:53.977Z,15.80
2019-06-07T22:32:19.156Z,15.80
2019-06-07T22:34:38.156Z,15.80
2019-06-07T22:37:09.335Z,15.80
2019-06-07T22:39:29.452Z,15.70
2019-06-07T22:41:49.554Z,15.70
2019-06-07T22:44:16.576Z,15.60
2019-06-07T22:46:40.237Z,15.60
2019-06-07T22:51:50.307Z,15.60
2019-06-07T22:54:18.100Z,15.60
2019-06-07T22:57:05.982Z,15.60
2019-06-07T22:59:15.527Z,15.60
2019-06-07T23:01:40.802Z,15.60
2019-06-07T23:04:08.425Z,15.70
2019-06-07T23:06:27.868Z,15.70
2019-06-07T23:11:41.098Z,15.70
2019-06-07T23:14:04.771Z,15.80
2019-06-07T23:16:33.233Z,15.70
2019-06-07T23:18:42.232Z,15.70
2019-06-07T23:21:22.695Z,15.70
2019-06-07T23:26:25.707Z,15.80
2019-06-07T23:28:53.973Z,15.80
2019-06-07T23:31:18.548Z,15.80
2019-06-07T23:33:40.109Z,15.80
2019-06-07T23:35:56.930Z,15.80
2019-06-07T23:38:36.496Z,15.90
2019-06-07T23:41:00.141Z,16.00
2019-06-07T23:43:21.578Z,16.00
2019-06-07T23:45:32.452Z,16.00
2019-06-07T23:47:54.934Z,16.00
2019-06-07T23:50:28.067Z,16.00
2019-06-07T23:52:52.494Z,16.00
2019-06-07T23:55:11.834Z,15.90
2019-06-07T23:57:30.006Z,15.80
2019-06-07T23:59:53.356Z,15.80
